createdAt,value
2018-04-13T00:00:37.144Z,83.23
2018-04-13T00:03:04.553Z,82.02
2018-04-13T00:05:31.935Z,81.36
2018-04-13T00:07:59.347Z,81.72
2018-04-13T00:10:26.754Z,81.81
2018-04-13T00:12:54.152Z,81.42
2018-04-13T00:15:21.550Z,82.02
2018-04-13T00:17:48.943Z,82.27
2018-04-13T00:20:16.349Z,82.55
2018-04-13T00:22:43.744Z,82.98
2018-04-13T00:25:11.139Z,82.97
2018-04-13T00:27:38.646Z,82.84
2018-04-13T00:30:06.029Z,83.21
2018-04-13T00:32:33.434Z,83.23
2018-04-13T00:35:00.828Z,83.09
2018-04-13T00:37:28.227Z,82.94
2018-04-13T00:39:55.620Z,83.47
2018-04-13T00:42:23.032Z,84.61
2018-04-13T04:20:50.402Z,86.07
2018-04-13T04:23:29.598Z,86.18
2018-04-13T04:26:08.741Z,85.92
2018-04-13T04:28:36.354Z,85.93
2018-04-13T10:40:04.689Z,76.43
2018-04-13T11:00:30.046Z,72.85
2018-04-13T11:02:57.540Z,72.76
2018-04-13T11:05:25.057Z,72.16
2018-04-13T13:00:45.101Z,77.51
2018-04-13T13:03:12.549Z,76.73
2018-04-13T13:05:39.987Z,75.47
2018-04-13T13:08:07.469Z,75.74
2018-04-13T15:55:14.276Z,74.22
2018-04-13T15:57:41.712Z,73.07
2018-04-13T16:00:09.240Z,74.39
2018-04-13T16:02:36.856Z,72.72
2018-04-13T16:05:04.380Z,72.19
2018-04-13T16:07:31.940Z,71.44
2018-04-13T16:09:59.378Z,71.71
2018-04-13T16:12:26.861Z,71.26
2018-04-13T16:14:54.314Z,69.95
2018-04-13T16:17:21.801Z,70.07
2018-04-13T16:19:49.284Z,71.32
2018-04-13T16:22:16.827Z,69.67
2018-04-13T16:24:44.340Z,70.11
2018-04-13T16:27:11.778Z,70.73
2018-04-13T16:29:39.437Z,69.51
2018-04-13T16:32:06.879Z,67.57
2018-04-13T16:34:34.352Z,68.17
2018-04-13T16:37:01.851Z,67.76
2018-04-13T16:39:29.621Z,67.68
2018-04-13T16:41:57.156Z,68.43
2018-04-13T16:44:24.679Z,68.20
2018-04-13T16:46:52.164Z,68.88
2018-04-13T16:49:19.625Z,70.03
2018-04-13T16:51:47.069Z,69.76
2018-04-13T16:54:16.491Z,70.37
2018-04-13T16:56:44.079Z,71.38
2018-04-13T16:59:11.565Z,71.20
2018-04-13T17:01:38.987Z,71.33
2018-04-13T17:04:06.412Z,71.67
2018-04-13T17:06:33.953Z,71.30
2018-04-13T17:09:01.445Z,70.30
2018-04-13T17:11:28.969Z,69.94
2018-04-13T17:13:56.431Z,70.93
2018-04-13T17:16:25.041Z,70.97
2018-04-13T17:18:52.570Z,72.43
2018-04-13T17:21:22.105Z,72.08
2018-04-13T17:23:49.542Z,71.82
2018-04-13T17:26:17.034Z,72.22
2018-04-13T17:28:44.532Z,73.32
2018-04-13T17:31:12.010Z,73.70
2018-04-13T17:33:39.469Z,74.24
2018-04-13T17:36:07.006Z,74.11
2018-04-13T17:38:34.514Z,74.20
2018-04-13T17:41:02.042Z,73.67
2018-04-13T17:43:29.631Z,73.79
2018-04-13T17:45:57.173Z,73.63
2018-04-13T17:50:58.456Z,74.19
2018-04-13T17:53:25.894Z,74.46
2018-04-13T17:55:53.988Z,75.06
2018-04-13T17:58:21.437Z,74.83
2018-04-13T18:00:48.905Z,75.14
2018-04-13T18:03:16.401Z,75.56
2018-04-13T18:05:43.877Z,76.25
2018-04-13T18:08:11.554Z,76.51
2018-04-13T18:10:39.099Z,76.17
2018-04-13T18:13:06.658Z,75.38
2018-04-13T18:15:34.133Z,75.15
2018-04-13T18:18:01.743Z,74.23
2018-04-13T18:20:29.433Z,74.15
2018-04-13T18:22:56.888Z,75.12
2018-04-13T18:25:24.480Z,74.57
2018-04-13T18:27:51.999Z,74.77
2018-04-13T18:30:19.533Z,74.56
2018-04-13T18:32:47.026Z,74.40
2018-04-13T18:35:14.638Z,73.94
2018-04-13T18:37:42.188Z,74.32
2018-04-13T18:40:09.698Z,74.15
2018-04-13T18:42:37.165Z,74.30
2018-04-13T18:45:04.664Z,74.69
2018-04-13T18:47:32.182Z,74.76
2018-04-13T18:49:59.714Z,74.63
2018-04-13T18:52:27.202Z,75.21
2018-04-13T18:54:54.747Z,75.83
2018-04-13T18:57:22.383Z,76.53
2018-04-13T18:59:49.912Z,75.83
2018-04-13T19:02:17.369Z,76.19
2018-04-13T19:04:44.868Z,76.31
2018-04-13T19:07:12.428Z,75.74
2018-04-13T19:09:39.956Z,75.44
2018-04-13T19:12:07.495Z,75.27
2018-04-13T19:14:34.965Z,75.09
2018-04-13T19:17:02.480Z,75.31
2018-04-13T19:19:29.953Z,75.43
2018-04-13T19:21:57.430Z,75.23
2018-04-13T19:24:24.903Z,75.90
2018-04-13T19:26:56.181Z,75.29
2018-04-13T19:29:23.708Z,75.18
2018-04-13T19:31:51.184Z,75.46
2018-04-13T19:34:18.759Z,75.58
2018-04-13T19:36:46.326Z,76.11
2018-04-13T19:39:13.909Z,76.02
2018-04-13T19:41:41.536Z,75.70
2018-04-13T19:44:09.053Z,75.55
2018-04-13T19:46:36.564Z,75.93
2018-04-13T19:49:04.117Z,75.70
2018-04-13T19:51:31.647Z,75.62
2018-04-13T19:53:59.198Z,75.47
2018-04-13T19:56:26.690Z,75.30
2018-04-13T19:58:54.173Z,75.03
2018-04-13T20:01:21.709Z,74.81
2018-04-13T20:03:49.203Z,75.70
2018-04-13T20:06:16.700Z,75.54
2018-04-13T20:08:44.219Z,75.59
2018-04-13T20:11:11.868Z,76.05
2018-04-13T20:13:39.299Z,75.98
2018-04-13T20:16:06.773Z,76.02
2018-04-13T20:18:34.229Z,76.46
2018-04-13T20:21:01.690Z,76.63
2018-04-13T20:23:29.268Z,77.00
2018-04-13T20:25:56.784Z,77.26
2018-04-13T20:28:24.305Z,77.16
2018-04-13T20:30:51.802Z,77.10
2018-04-13T20:33:19.245Z,77.04
2018-04-13T20:35:46.730Z,77.11
2018-04-13T20:38:14.445Z,77.26
2018-04-13T20:40:41.963Z,76.96
2018-04-13T20:43:09.513Z,76.85
2018-04-13T20:45:37.180Z,76.96
2018-04-13T20:48:04.654Z,76.06
2018-04-13T20:50:32.103Z,75.79
2018-04-13T20:52:59.564Z,75.70
2018-04-13T20:55:27.114Z,75.06
2018-04-13T20:57:54.705Z,74.89
2018-04-13T21:00:22.203Z,74.80
2018-04-13T21:02:49.711Z,75.37
2018-04-13T21:05:17.294Z,75.45
2018-04-13T21:13:45.453Z,76.58
2018-04-13T21:16:13.020Z,76.65
2018-04-13T21:18:40.643Z,77.32
2018-04-13T21:21:08.386Z,77.73
2018-04-13T21:23:35.906Z,77.98
2018-04-13T21:26:03.466Z,77.81
2018-04-13T21:28:30.971Z,78.06
2018-04-13T21:30:58.442Z,78.35
2018-04-13T21:33:25.947Z,78.67
2018-04-13T21:35:53.513Z,78.61
2018-04-13T21:38:21.016Z,78.44
2018-04-13T21:40:48.468Z,78.75
2018-04-13T21:43:16.097Z,78.38
2018-04-13T21:45:43.632Z,78.67
2018-04-13T21:48:11.186Z,78.50
2018-04-13T21:50:39.209Z,78.49
2018-04-13T21:53:06.715Z,79.00
2018-04-13T21:55:34.277Z,79.64
2018-04-13T21:58:01.845Z,79.83
2018-04-13T22:02:42.885Z,80.31
2018-04-13T22:05:10.501Z,80.57
2018-04-13T22:07:40.157Z,80.61
2018-04-13T22:10:07.763Z,80.44
2018-04-13T22:12:47.012Z,80.67
2018-04-13T22:15:14.578Z,80.71
2018-04-13T22:17:42.018Z,80.54
2018-04-13T22:20:10.410Z,80.40
2018-04-13T22:22:37.986Z,80.35
2018-04-13T22:25:05.538Z,80.05
2018-04-13T22:27:33.008Z,80.23
2018-04-13T22:30:00.541Z,81.11
2018-04-13T22:32:27.986Z,82.54
2018-04-13T22:34:55.512Z,82.35
2018-04-13T22:37:23.135Z,82.26
2018-04-13T22:39:54.641Z,82.05
2018-04-13T22:42:22.129Z,81.57
2018-04-13T22:44:49.641Z,81.08
2018-04-13T22:47:17.150Z,81.34
2018-04-13T22:49:44.706Z,81.85
2018-04-13T22:52:12.236Z,82.07
2018-04-13T22:54:39.668Z,82.13
2018-04-13T22:57:07.170Z,82.93
2018-04-13T22:59:34.725Z,83.23
2018-04-13T23:02:02.330Z,84.00
2018-04-13T23:04:29.824Z,83.96
2018-04-13T23:06:57.364Z,83.43
2018-04-13T23:09:24.845Z,83.29
2018-04-13T23:11:52.556Z,83.93
2018-04-13T23:14:20.017Z,84.05
2018-04-13T23:16:47.930Z,85.12
2018-04-13T23:19:15.399Z,84.77
2018-04-13T23:21:42.999Z,84.55
2018-04-13T23:24:10.466Z,84.38
2018-04-13T23:26:37.878Z,84.25
2018-04-13T23:29:05.337Z,84.26
2018-04-13T23:31:33.038Z,84.21
2018-04-13T23:34:01.540Z,84.35
2018-04-13T23:36:28.995Z,84.77
2018-04-13T23:38:56.476Z,85.20
2018-04-13T23:41:23.948Z,85.37
2018-04-13T23:44:00.462Z,85.64
2018-04-13T23:46:27.961Z,85.86
2018-04-13T23:48:55.432Z,85.78
2018-04-13T23:51:22.927Z,85.72
2018-04-13T23:53:50.432Z,85.62
2018-04-13T23:56:17.869Z,85.66
2018-04-13T23:58:45.396Z,86.33
